Time;durP1;ratioP1;P1;durP2;ratioP2;P2;SDS_P1;SDS_P2;PMS_P1;PMS_P2;Temp;Humidity;BMP_temperature;BMP_pressure;BME280_temperature;BME280_humidity;BME280_pressure;Samples;Min_cycle;Max_cycle;Signal;HPM_P1;HPM_P2
2023/02/03 00:02:01;;;;;;;8.70;5.90;;;;;;;-128.00;-1.00;-1.00;105028;1262;1003466;-85
2023/02/03 00:04:28;;;;;;;11.20;5.80;;;;;;;-128.00;-1.00;-1.00;105057;1262;1003604;-82
2023/02/03 00:06:55;;;;;;;10.10;5.20;;;;;;;-128.00;-1.00;-1.00;105049;1262;1004046;-85
2023/02/03 00:09:22;;;;;;;7.80;4.80;;;;;;;-128.00;-1.00;-1.00;105036;1262;1004622;-85
2023/02/03 00:11:49;;;;;;;8.10;5.50;;;;;;;-128.00;-1.00;-1.00;104314;1262;1004218;-85
2023/02/03 00:14:16;;;;;;;8.30;5.50;;;;;;;-128.00;-1.00;-1.00;105045;1262;1003923;-83
2023/02/03 00:16:42;;;;;;;8.10;5.80;;;;;;;-128.00;-1.00;-1.00;105049;1262;1004710;-85
2023/02/03 00:19:09;;;;;;;8.30;6.00;;;;;;;-128.00;-1.00;-1.00;105037;1262;1003960;-85
2023/02/03 00:21:36;;;;;;;8.00;6.20;;;;;;;-128.00;-1.00;-1.00;105031;1262;1004892;-85
2023/02/03 00:24:03;;;;;;;10.10;6.60;;;;;;;-128.00;-1.00;-1.00;105033;1262;1004122;-85
2023/02/03 00:26:29;;;;;;;8.80;6.50;;;;;;;-128.00;-1.00;-1.00;105047;1262;1005142;-84
2023/02/03 00:28:58;;;;;;;7.40;5.90;;;;;;;-128.00;-1.00;-1.00;105032;1262;1003500;-84
2023/02/03 00:31:25;;;;;;;7.90;6.60;;;;;;;-128.00;-1.00;-1.00;104912;1262;1059541;-85
2023/02/03 00:33:56;;;;;;;11.70;7.40;;;;;;;-128.00;-1.00;-1.00;105010;1262;1004517;-84
2023/02/03 00:36:24;;;;;;;8.40;6.20;;;;;;;-128.00;-1.00;-1.00;104935;1262;1046639;-84
2023/02/03 00:38:51;;;;;;;7.50;6.20;;;;;;;-128.00;-1.00;-1.00;105029;1262;1003764;-84
2023/02/03 00:41:20;;;;;;;8.20;5.70;;;;;;;-128.00;-1.00;-1.00;104942;1262;1003895;-83
2023/02/03 00:43:47;;;;;;;9.70;6.20;;;;;;;-128.00;-1.00;-1.00;104990;1262;1004507;-86
2023/02/03 00:46:14;;;;;;;11.40;6.00;;;;;;;-128.00;-1.00;-1.00;105007;1262;1004511;-84
2023/02/03 00:48:41;;;;;;;7.50;4.90;;;;;;;-128.00;-1.00;-1.00;104946;1262;1004253;-83
2023/02/03 00:51:08;;;;;;;8.50;5.60;;;;;;;-128.00;-1.00;-1.00;105062;1262;1004002;-85
2023/02/03 00:53:34;;;;;;;9.60;6.00;;;;;;;-128.00;-1.00;-1.00;104775;1262;1005215;-85
2023/02/03 00:56:01;;;;;;;9.00;5.60;;;;;;;-128.00;-1.00;-1.00;105005;1262;1004615;-85
2023/02/03 00:58:29;;;;;;;8.40;5.10;;;;;;;-128.00;-1.00;-1.00;104939;1262;1003785;-82
2023/02/03 01:00:56;;;;;;;6.30;5.20;;;;;;;-128.00;-1.00;-1.00;105174;1262;1003932;-85
2023/02/03 01:03:22;;;;;;;7.10;4.60;;;;;;;-128.00;-1.00;-1.00;105078;1262;1005483;-85
2023/02/03 01:05:49;;;;;;;5.90;5.00;;;;;;;-128.00;-1.00;-1.00;105007;1262;1004887;-84
2023/02/03 01:08:16;;;;;;;7.70;5.30;;;;;;;-128.00;-1.00;-1.00;104938;1262;1004494;-84
2023/02/03 01:10:43;;;;;;;8.20;5.30;;;;;;;-128.00;-1.00;-1.00;105096;1262;1003560;-84
2023/02/03 01:13:10;;;;;;;8.00;5.20;;;;;;;-128.00;-1.00;-1.00;105098;1262;1004618;-85
2023/02/03 01:15:36;;;;;;;8.30;5.70;;;;;;;-128.00;-1.00;-1.00;105093;1262;1004176;-84
2023/02/03 01:18:03;;;;;;;8.50;5.20;;;;;;;-128.00;-1.00;-1.00;105071;1262;1003581;-82
2023/02/03 01:20:30;;;;;;;9.80;5.00;;;;;;;-128.00;-1.00;-1.00;105021;1262;1003734;-84
2023/02/03 01:22:56;;;;;;;10.50;5.70;;;;;;;-128.00;-1.00;-1.00;105068;1262;1004150;-84
2023/02/03 01:25:23;;;;;;;6.70;5.30;;;;;;;-128.00;-1.00;-1.00;104901;1262;1004456;-83
2023/02/03 01:27:50;;;;;;;6.50;5.70;;;;;;;-128.00;-1.00;-1.00;105105;1262;1005138;-83
2023/02/03 01:30:17;;;;;;;7.10;5.20;;;;;;;-128.00;-1.00;-1.00;105115;1262;1004862;-83
2023/02/03 01:32:43;;;;;;;7.50;5.10;;;;;;;-128.00;-1.00;-1.00;104941;1262;1003445;-85
2023/02/03 01:35:10;;;;;;;7.00;4.50;;;;;;;-128.00;-1.00;-1.00;105058;1262;1003309;-84
2023/02/03 01:37:37;;;;;;;9.00;5.00;;;;;;;-128.00;-1.00;-1.00;105067;1262;1005265;-84
2023/02/03 01:40:04;;;;;;;8.00;5.70;;;;;;;-128.00;-1.00;-1.00;105040;1262;1004537;-83
2023/02/03 01:42:34;;;;;;;7.20;5.70;;;;;;;-128.00;-1.00;-1.00;104869;1262;1004571;-84
2023/02/03 01:45:00;;;;;;;6.80;4.60;;;;;;;-128.00;-1.00;-1.00;104772;1262;1058468;-84
2023/02/03 01:47:35;;;;;;;7.10;4.30;;;;;;;-128.00;-1.00;-1.00;104950;1262;1004531;-83
2023/02/03 01:50:12;;;;;;;7.00;4.30;;;;;;;-128.00;-1.00;-1.00;104826;1262;1046936;-85
2023/02/03 01:52:42;;;;;;;6.50;4.40;;;;;;;-128.00;-1.00;-1.00;105058;1262;1061807;-84
2023/02/03 01:55:15;;;;;;;5.20;3.70;;;;;;;-128.00;-1.00;-1.00;105072;1262;1057015;-84
2023/02/03 01:57:54;;;;;;;5.00;3.60;;;;;;;-128.00;-1.00;-1.00;104907;1262;1059456;-84
2023/02/03 02:00:22;;;;;;;5.90;3.40;;;;;;;-128.00;-1.00;-1.00;105041;1262;1045776;-83
2023/02/03 02:02:49;;;;;;;5.50;3.60;;;;;;;-128.00;-1.00;-1.00;105051;1262;1004097;-84
2023/02/03 02:05:24;;;;;;;5.30;3.70;;;;;;;-128.00;-1.00;-1.00;105035;1262;1004567;-85
2023/02/03 02:07:51;;;;;;;5.60;3.80;;;;;;;-128.00;-1.00;-1.00;104985;1262;1055565;-84
2023/02/03 02:10:17;;;;;;;7.80;4.30;;;;;;;-128.00;-1.00;-1.00;105055;1262;1004255;-85
2023/02/03 02:12:44;;;;;;;8.20;4.90;;;;;;;-128.00;-1.00;-1.00;105057;1262;1004869;-84
2023/02/03 02:15:11;;;;;;;6.00;4.10;;;;;;;-128.00;-1.00;-1.00;104989;1262;1004017;-83
2023/02/03 02:17:50;;;;;;;5.60;3.50;;;;;;;-128.00;-1.00;-1.00;105065;1262;1004316;-84
2023/02/03 02:20:36;;;;;;;6.20;3.60;;;;;;;-128.00;-1.00;-1.00;105067;1262;1055236;-84
2023/02/03 02:23:24;;;;;;;6.90;4.30;;;;;;;-128.00;-1.00;-1.00;105047;1262;1059366;-83
2023/02/03 02:26:11;;;;;;;7.70;4.60;;;;;;;-128.00;-1.00;-1.00;105033;1262;1045416;-85
2023/02/03 02:28:48;;;;;;;5.30;3.90;;;;;;;-128.00;-1.00;-1.00;105086;1262;1046387;-83
2023/02/03 02:31:52;;;;;;;6.60;5.50;;;;;;;-128.00;-1.00;-1.00;105067;1262;1062911;-83
2023/02/03 02:34:41;;;;;;;8.40;5.70;;;;;;;-128.00;-1.00;-1.00;105047;1262;1055216;-85
2023/02/03 02:37:20;;;;;;;8.90;6.40;;;;;;;-128.00;-1.00;-1.00;105045;1262;1059402;-83
2023/02/03 02:39:59;;;;;;;10.70;6.40;;;;;;;-128.00;-1.00;-1.00;105045;1262;1045995;-84
2023/02/03 02:42:34;;;;;;;7.10;5.80;;;;;;;-128.00;-1.00;-1.00;105069;1262;1046864;-84
2023/02/03 02:45:16;;;;;;;7.60;6.20;;;;;;;-128.00;-1.00;-1.00;104910;1262;1061880;-84
2023/02/03 02:47:44;;;;;;;7.90;4.90;;;;;;;-128.00;-1.00;-1.00;105087;1262;1056071;-84
2023/02/03 02:50:17;;;;;;;5.90;4.30;;;;;;;-128.00;-1.00;-1.00;104936;1262;1003589;-85
2023/02/03 02:52:47;;;;;;;7.80;4.40;;;;;;;-128.00;-1.00;-1.00;105044;1262;1045781;-85
2023/02/03 02:55:23;;;;;;;6.60;4.60;;;;;;;-128.00;-1.00;-1.00;105049;1262;1047983;-84
2023/02/03 02:57:53;;;;;;;7.50;4.40;;;;;;;-128.00;-1.00;-1.00;104947;1262;1062792;-86
2023/02/03 03:00:30;;;;;;;5.90;4.20;;;;;;;-128.00;-1.00;-1.00;104928;1262;1055900;-83
2023/02/03 03:03:03;;;;;;;7.60;4.90;;;;;;;-128.00;-1.00;-1.00;105072;1262;1058618;-83
2023/02/03 03:05:29;;;;;;;5.20;4.50;;;;;;;-128.00;-1.00;-1.00;105060;1262;1045189;-84
2023/02/03 03:08:03;;;;;;;7.30;4.90;;;;;;;-128.00;-1.00;-1.00;105086;1262;1004212;-84
2023/02/03 03:10:31;;;;;;;6.70;4.20;;;;;;;-128.00;-1.00;-1.00;104811;1262;1063396;-83
2023/02/03 03:13:03;;;;;;;7.40;4.80;;;;;;;-128.00;-1.00;-1.00;104973;1262;1004644;-86
2023/02/03 03:15:33;;;;;;;8.90;5.20;;;;;;;-128.00;-1.00;-1.00;104968;1262;1058102;-84
2023/02/03 03:18:08;;;;;;;7.50;5.50;;;;;;;-128.00;-1.00;-1.00;105070;1263;1046052;-84
2023/02/03 03:20:38;;;;;;;8.30;5.80;;;;;;;-128.00;-1.00;-1.00;104994;1262;1047281;-85
2023/02/03 03:23:10;;;;;;;7.80;5.50;;;;;;;-128.00;-1.00;-1.00;104939;1262;1062893;-85
2023/02/03 03:25:45;;;;;;;9.40;5.80;;;;;;;-128.00;-1.00;-1.00;104835;1262;1054348;-84
2023/02/03 03:28:25;;;;;;;8.80;6.40;;;;;;;-128.00;-1.00;-1.00;105041;1262;1059124;-84
2023/02/03 03:30:52;;;;;;;8.90;5.20;;;;;;;-128.00;-1.00;-1.00;104972;1262;1047541;-84
2023/02/03 03:33:20;;;;;;;8.80;6.70;;;;;;;-128.00;-1.00;-1.00;104979;1262;1004596;-85
2023/02/03 03:35:56;;;;;;;10.40;6.50;;;;;;;-128.00;-1.00;-1.00;105054;1262;1004126;-85
2023/02/03 03:38:32;;;;;;;9.90;8.00;;;;;;;-128.00;-1.00;-1.00;104981;1262;1057482;-85
2023/02/03 03:41:11;;;;;;;8.70;6.40;;;;;;;-128.00;-1.00;-1.00;105085;1262;1058719;-85
2023/02/03 03:43:42;;;;;;;8.60;6.70;;;;;;;-128.00;-1.00;-1.00;105041;1262;1045869;-85
2023/02/03 03:46:14;;;;;;;10.20;6.70;;;;;;;-128.00;-1.00;-1.00;104969;1262;1046155;-85
2023/02/03 03:48:55;;;;;;;8.30;4.80;;;;;;;-128.00;-1.00;-1.00;104975;1262;1062453;-84
2023/02/03 03:51:45;;;;;;;8.30;5.80;;;;;;;-128.00;-1.00;-1.00;104982;1262;1055864;-84
2023/02/03 03:54:16;;;;;;;9.00;6.40;;;;;;;-128.00;-1.00;-1.00;104955;1262;1059930;-85
2023/02/03 03:56:50;;;;;;;8.40;5.90;;;;;;;-128.00;-1.00;-1.00;105071;1262;1046236;-84
2023/02/03 03:59:20;;;;;;;8.40;6.10;;;;;;;-128.00;-1.00;-1.00;105072;1262;1047146;-84
2023/02/03 04:01:48;;;;;;;7.90;4.80;;;;;;;-128.00;-1.00;-1.00;105052;1262;1060957;-84
2023/02/03 04:04:15;;;;;;;7.60;4.30;;;;;;;-128.00;-1.00;-1.00;105065;1262;1004123;-85
2023/02/03 04:06:42;;;;;;;7.80;4.60;;;;;;;-128.00;-1.00;-1.00;105061;1262;1003909;-83
2023/02/03 04:09:09;;;;;;;6.70;5.10;;;;;;;-128.00;-1.00;-1.00;105036;1262;1004940;-84
2023/02/03 04:14:20;;;;;;;7.20;4.20;;;;;;;-128.00;-1.00;-1.00;105045;1262;1062668;-84
2023/02/03 04:16:47;;;;;;;10.10;5.50;;;;;;;-128.00;-1.00;-1.00;105053;1262;1005414;-84
2023/02/03 04:19:14;;;;;;;10.60;7.60;;;;;;;-128.00;-1.00;-1.00;104955;1262;1004426;-84
2023/02/03 04:21:40;;;;;;;15.80;9.70;;;;;;;-128.00;-1.00;-1.00;105076;1262;1004979;-84
2023/02/03 04:24:07;;;;;;;12.90;8.70;;;;;;;-128.00;-1.00;-1.00;105104;1262;1003536;-84
2023/02/03 04:26:34;;;;;;;13.30;10.10;;;;;;;-128.00;-1.00;-1.00;105067;1262;1003825;-84
2023/02/03 04:29:01;;;;;;;14.00;9.70;;;;;;;-128.00;-1.00;-1.00;105059;1262;1004992;-84
2023/02/03 04:31:28;;;;;;;9.60;7.90;;;;;;;-128.00;-1.00;-1.00;105047;1262;1004348;-84
2023/02/03 04:33:55;;;;;;;18.30;11.60;;;;;;;-128.00;-1.00;-1.00;105082;1262;1003765;-83
2023/02/03 04:36:22;;;;;;;16.80;9.90;;;;;;;-128.00;-1.00;-1.00;105092;1262;1004598;-84
2023/02/03 04:38:49;;;;;;;15.10;9.60;;;;;;;-128.00;-1.00;-1.00;105045;1262;1003980;-85
2023/02/03 04:41:16;;;;;;;16.20;9.50;;;;;;;-128.00;-1.00;-1.00;105072;1262;1004454;-84
2023/02/03 04:43:43;;;;;;;15.40;10.20;;;;;;;-128.00;-1.00;-1.00;105064;1262;1004356;-85
2023/02/03 04:46:10;;;;;;;16.00;10.70;;;;;;;-128.00;-1.00;-1.00;105050;1262;1003941;-84
2023/02/03 04:48:36;;;;;;;16.30;11.20;;;;;;;-128.00;-1.00;-1.00;105076;1262;1004004;-84
2023/02/03 04:51:06;;;;;;;16.30;12.50;;;;;;;-128.00;-1.00;-1.00;104854;1265;1004086;-84
2023/02/03 04:53:33;;;;;;;22.40;15.70;;;;;;;-128.00;-1.00;-1.00;104763;1265;1056486;-85
2023/02/03 04:56:00;;;;;;;19.80;15.10;;;;;;;-128.00;-1.00;-1.00;104691;1265;1004606;-85
2023/02/03 04:58:29;;;;;;;26.50;17.90;;;;;;;-128.00;-1.00;-1.00;104730;1265;1004262;-84
2023/02/03 05:00:55;;;;;;;26.50;18.20;;;;;;;-128.00;-1.00;-1.00;104821;1265;1003667;-85
2023/02/03 05:03:22;;;;;;;30.40;18.90;;;;;;;-128.00;-1.00;-1.00;104827;1266;1005185;-85
2023/02/03 05:05:49;;;;;;;27.20;18.50;;;;;;;-128.00;-1.00;-1.00;104822;1265;1003493;-84
2023/02/03 05:08:16;;;;;;;29.80;20.50;;;;;;;-128.00;-1.00;-1.00;104824;1265;1004528;-85
2023/02/03 05:10:42;;;;;;;26.00;20.80;;;;;;;-128.00;-1.00;-1.00;104818;1269;1003843;-84
2023/02/03 05:13:09;;;;;;;28.90;19.60;;;;;;;-128.00;-1.00;-1.00;104608;1265;1004251;-85
2023/02/03 05:15:36;;;;;;;27.40;19.20;;;;;;;-128.00;-1.00;-1.00;104831;1265;1004619;-84
2023/02/03 05:18:03;;;;;;;26.20;18.40;;;;;;;-128.00;-1.00;-1.00;104839;1265;1004026;-84
2023/02/03 05:20:29;;;;;;;22.40;14.40;;;;;;;-128.00;-1.00;-1.00;104568;1265;1004124;-86
2023/02/03 05:22:57;;;;;;;22.80;15.60;;;;;;;-128.00;-1.00;-1.00;104999;1262;1004256;-84
2023/02/03 05:25:24;;;;;;;23.70;16.50;;;;;;;-128.00;-1.00;-1.00;104773;1262;1003934;-86
2023/02/03 05:27:51;;;;;;;27.00;19.30;;;;;;;-128.00;-1.00;-1.00;105001;1262;1004501;-85
2023/02/03 05:30:17;;;;;;;22.10;16.10;;;;;;;-128.00;-1.00;-1.00;105052;1262;1003795;-85
2023/02/03 05:32:44;;;;;;;22.30;16.30;;;;;;;-128.00;-1.00;-1.00;105003;1262;1004531;-83
2023/02/03 05:35:11;;;;;;;25.30;18.10;;;;;;;-128.00;-1.00;-1.00;104736;1262;1005664;-85
2023/02/03 05:37:37;;;;;;;23.80;18.50;;;;;;;-128.00;-1.00;-1.00;105028;1262;1004284;-84
2023/02/03 05:42:50;;;;;;;22.80;17.10;;;;;;;-128.00;-1.00;-1.00;105044;1262;1056121;-82
2023/02/03 05:45:16;;;;;;;19.80;15.70;;;;;;;-128.00;-1.00;-1.00;105023;1262;1004026;-85
2023/02/03 05:47:43;;;;;;;20.60;16.50;;;;;;;-128.00;-1.00;-1.00;105005;1262;1005001;-84
2023/02/03 05:50:10;;;;;;;23.90;15.10;;;;;;;-128.00;-1.00;-1.00;105031;1262;1004083;-84
2023/02/03 05:52:36;;;;;;;20.90;14.90;;;;;;;-128.00;-1.00;-1.00;105037;1262;1004120;-85
2023/02/03 05:55:03;;;;;;;19.60;13.10;;;;;;;-128.00;-1.00;-1.00;105015;1262;1005130;-84
2023/02/03 05:57:30;;;;;;;19.00;12.60;;;;;;;-128.00;-1.00;-1.00;105017;1263;1004038;-85
2023/02/03 05:59:57;;;;;;;24.60;16.20;;;;;;;-128.00;-1.00;-1.00;105038;1262;1004917;-85
2023/02/03 06:02:24;;;;;;;23.00;15.40;;;;;;;-128.00;-1.00;-1.00;105035;1262;1004418;-84
2023/02/03 06:04:50;;;;;;;21.30;13.20;;;;;;;-128.00;-1.00;-1.00;105033;1262;1004476;-85
2023/02/03 06:07:17;;;;;;;19.60;14.20;;;;;;;-128.00;-1.00;-1.00;105044;1262;1004181;-84
2023/02/03 06:09:44;;;;;;;21.30;15.70;;;;;;;-128.00;-1.00;-1.00;104993;1262;1004928;-85
2023/02/03 06:12:10;;;;;;;19.70;14.90;;;;;;;-128.00;-1.00;-1.00;104998;1263;1004261;-85
2023/02/03 06:14:37;;;;;;;20.80;14.50;;;;;;;-128.00;-1.00;-1.00;105024;1262;1003677;-85
2023/02/03 06:17:04;;;;;;;19.70;15.20;;;;;;;-128.00;-1.00;-1.00;105051;1262;1003462;-84
2023/02/03 06:19:30;;;;;;;17.30;13.40;;;;;;;-128.00;-1.00;-1.00;105009;1263;1004452;-84
2023/02/03 06:21:57;;;;;;;22.70;14.60;;;;;;;-128.00;-1.00;-1.00;105020;1263;1004450;-85
2023/02/03 06:24:24;;;;;;;22.20;15.70;;;;;;;-128.00;-1.00;-1.00;105002;1264;1003320;-84
2023/02/03 06:26:50;;;;;;;18.60;13.10;;;;;;;-128.00;-1.00;-1.00;105057;1263;1003987;-85
2023/02/03 06:29:17;;;;;;;23.40;14.20;;;;;;;-128.00;-1.00;-1.00;105029;1262;1004325;-85
2023/02/03 06:31:43;;;;;;;21.30;15.50;;;;;;;-128.00;-1.00;-1.00;105007;1263;1004446;-85
2023/02/03 06:34:10;;;;;;;20.50;15.60;;;;;;;-128.00;-1.00;-1.00;104855;1263;1003958;-85
2023/02/03 06:36:37;;;;;;;23.50;18.30;;;;;;;-128.00;-1.00;-1.00;104857;1262;1004756;-85
2023/02/03 06:39:03;;;;;;;21.50;16.80;;;;;;;-128.00;-1.00;-1.00;104936;1263;1003283;-84
2023/02/03 06:41:31;;;;;;;22.90;15.80;;;;;;;-128.00;-1.00;-1.00;105047;1263;1004695;-84
2023/02/03 06:43:58;;;;;;;19.70;14.20;;;;;;;-128.00;-1.00;-1.00;104937;1262;1004893;-84
2023/02/03 06:46:28;;;;;;;20.50;14.30;;;;;;;-128.00;-1.00;-1.00;105028;1263;1004063;-83
2023/02/03 06:48:55;;;;;;;22.30;15.20;;;;;;;-128.00;-1.00;-1.00;104829;1263;1046368;-84
2023/02/03 06:51:23;;;;;;;22.70;15.50;;;;;;;-128.00;-1.00;-1.00;104970;1262;1003615;-84
2023/02/03 06:53:50;;;;;;;19.30;13.80;;;;;;;-128.00;-1.00;-1.00;104939;1262;1003825;-84
2023/02/03 06:56:17;;;;;;;22.30;14.30;;;;;;;-128.00;-1.00;-1.00;105022;1263;1003975;-83
2023/02/03 06:58:44;;;;;;;21.10;14.20;;;;;;;-128.00;-1.00;-1.00;105023;1263;1004091;-85
2023/02/03 07:01:11;;;;;;;21.10;15.40;;;;;;;-128.00;-1.00;-1.00;105041;1263;1004559;-84
2023/02/03 07:03:38;;;;;;;20.60;14.20;;;;;;;-128.00;-1.00;-1.00;105025;1264;1004413;-80
2023/02/03 07:06:05;;;;;;;25.20;15.80;;;;;;;-128.00;-1.00;-1.00;104712;1262;1003682;-83
2023/02/03 07:08:31;;;;;;;23.30;16.40;;;;;;;-128.00;-1.00;-1.00;105032;1262;1004026;-84
2023/02/03 07:10:58;;;;;;;20.60;15.80;;;;;;;-128.00;-1.00;-1.00;105016;1263;1004534;-86
2023/02/03 07:13:25;;;;;;;24.30;17.10;;;;;;;-128.00;-1.00;-1.00;104997;1264;1003679;-84
2023/02/03 07:15:51;;;;;;;23.70;16.40;;;;;;;-128.00;-1.00;-1.00;104790;1262;1003624;-84
2023/02/03 07:18:22;;;;;;;26.60;17.80;;;;;;;-128.00;-1.00;-1.00;105029;1263;1003876;-84
2023/02/03 07:20:52;;;;;;;30.80;19.00;;;;;;;-128.00;-1.00;-1.00;105033;1263;1055581;-84
2023/02/03 07:23:18;;;;;;;28.20;20.00;;;;;;;-128.00;-1.00;-1.00;104971;1263;1059749;-85
2023/02/03 07:25:45;;;;;;;23.60;17.60;;;;;;;-128.00;-1.00;-1.00;105028;1262;1004589;-84
2023/02/03 07:28:12;;;;;;;26.00;16.00;;;;;;;-128.00;-1.00;-1.00;105023;1264;1004464;-84
2023/02/03 07:30:38;;;;;;;25.90;16.50;;;;;;;-128.00;-1.00;-1.00;105033;1264;1005068;-84
2023/02/03 07:33:06;;;;;;;25.00;16.30;;;;;;;-128.00;-1.00;-1.00;104295;1263;1003117;-85
2023/02/03 07:35:33;;;;;;;25.50;16.80;;;;;;;-128.00;-1.00;-1.00;105029;1262;1004324;-86
2023/02/03 07:38:00;;;;;;;27.40;17.60;;;;;;;-128.00;-1.00;-1.00;105015;1263;1004029;-85
2023/02/03 07:40:27;;;;;;;26.30;17.60;;;;;;;-128.00;-1.00;-1.00;105057;1262;1003893;-84
2023/02/03 07:42:54;;;;;;;26.60;15.90;;;;;;;-128.00;-1.00;-1.00;105022;1263;1004147;-84
2023/02/03 07:45:23;;;;;;;29.50;16.70;;;;;;;-128.00;-1.00;-1.00;105025;1264;1005540;-85
2023/02/03 07:47:50;;;;;;;29.80;17.20;;;;;;;-128.00;-1.00;-1.00;104618;1264;1058969;-85
2023/02/03 07:50:17;;;;;;;28.00;18.00;;;;;;;-128.00;-1.00;-1.00;104942;1263;1003400;-85
2023/02/03 07:52:44;;;;;;;27.60;16.20;;;;;;;-128.00;-1.00;-1.00;104932;1263;1005816;-83
2023/02/03 07:55:10;;;;;;;32.20;19.10;;;;;;;-128.00;-1.00;-1.00;104104;1267;1004418;-84
2023/02/03 07:57:42;;;;;;;32.20;20.30;;;;;;;-128.00;-1.00;-1.00;104854;1265;1004396;-83
2023/02/03 08:00:13;;;;;;;35.60;22.20;;;;;;;-128.00;-1.00;-1.00;104844;1266;1058494;-84
2023/02/03 08:02:43;;;;;;;32.90;20.80;;;;;;;-128.00;-1.00;-1.00;104600;1265;1046657;-85
2023/02/03 08:05:12;;;;;;;36.00;20.70;;;;;;;-128.00;-1.00;-1.00;104911;1265;1047226;-86
2023/02/03 08:07:40;;;;;;;30.20;18.80;;;;;;;-128.00;-1.00;-1.00;104930;1265;1062126;-85
2023/02/03 08:10:08;;;;;;;30.70;19.00;;;;;;;-128.00;-1.00;-1.00;104904;1264;1004324;-85
2023/02/03 08:12:35;;;;;;;34.00;18.30;;;;;;;-128.00;-1.00;-1.00;104771;1265;1003901;-83
2023/02/03 08:15:02;;;;;;;34.50;20.70;;;;;;;-128.00;-1.00;-1.00;104907;1267;1004653;-85
2023/02/03 08:17:28;;;;;;;35.10;20.80;;;;;;;-128.00;-1.00;-1.00;104735;1265;1004542;-85
2023/02/03 08:19:55;;;;;;;34.50;20.20;;;;;;;-128.00;-1.00;-1.00;104897;1266;1004365;-83
2023/02/03 08:22:22;;;;;;;28.60;18.00;;;;;;;-128.00;-1.00;-1.00;105032;1265;1004815;-84
2023/02/03 08:24:48;;;;;;;31.90;19.70;;;;;;;-128.00;-1.00;-1.00;104954;1266;1003898;-84
2023/02/03 08:27:18;;;;;;;34.20;20.90;;;;;;;-128.00;-1.00;-1.00;104879;1265;1004922;-83
2023/02/03 08:29:45;;;;;;;33.60;20.20;;;;;;;-128.00;-1.00;-1.00;104885;1267;1046455;-84
2023/02/03 08:32:16;;;;;;;30.80;19.50;;;;;;;-128.00;-1.00;-1.00;104916;1265;1004425;-84
2023/02/03 08:34:44;;;;;;;31.80;20.20;;;;;;;-128.00;-1.00;-1.00;104900;1265;1056896;-84
2023/02/03 08:37:13;;;;;;;37.40;21.50;;;;;;;-128.00;-1.00;-1.00;104586;1267;1004939;-84
2023/02/03 08:39:39;;;;;;;35.10;21.40;;;;;;;-128.00;-1.00;-1.00;104739;1265;1044884;-85
2023/02/03 08:42:06;;;;;;;40.10;20.80;;;;;;;-128.00;-1.00;-1.00;104765;1267;1004904;-85
2023/02/03 08:44:33;;;;;;;30.60;16.20;;;;;;;-128.00;-1.00;-1.00;104878;1267;1003726;-85
2023/02/03 08:47:00;;;;;;;23.80;11.90;;;;;;;-128.00;-1.00;-1.00;104810;1266;1005061;-85
2023/02/03 08:49:29;;;;;;;20.50;10.00;;;;;;;-128.00;-1.00;-1.00;104878;1266;1004186;-84
2023/02/03 08:51:56;;;;;;;14.50;7.50;;;;;;;-128.00;-1.00;-1.00;104854;1266;1004245;-85
2023/02/03 08:54:24;;;;;;;11.30;5.80;;;;;;;-128.00;-1.00;-1.00;104896;1265;1004055;-83
2023/02/03 08:56:51;;;;;;;8.40;5.70;;;;;;;-128.00;-1.00;-1.00;104649;1265;1004465;-84
2023/02/03 08:59:18;;;;;;;9.30;5.60;;;;;;;-128.00;-1.00;-1.00;104879;1267;1004440;-83
2023/02/03 09:01:47;;;;;;;12.50;5.90;;;;;;;-128.00;-1.00;-1.00;104863;1267;1004047;-82
2023/02/03 09:04:18;;;;;;;8.10;5.60;;;;;;;-128.00;-1.00;-1.00;104823;1265;1045181;-83
2023/02/03 09:06:46;;;;;;;10.40;6.20;;;;;;;-128.00;-1.00;-1.00;104865;1266;1046114;-86
2023/02/03 09:09:14;;;;;;;8.20;5.60;;;;;;;-128.00;-1.00;-1.00;104887;1265;1004979;-84
2023/02/03 09:11:42;;;;;;;6.50;4.60;;;;;;;-128.00;-1.00;-1.00;104856;1265;1004239;-84
2023/02/03 09:14:09;;;;;;;8.50;5.30;;;;;;;-128.00;-1.00;-1.00;104842;1265;1004641;-84
2023/02/03 09:16:36;;;;;;;7.90;5.50;;;;;;;-128.00;-1.00;-1.00;104903;1264;1004538;-83
2023/02/03 09:19:03;;;;;;;9.30;5.70;;;;;;;-128.00;-1.00;-1.00;104852;1263;1004012;-82
2023/02/03 09:21:30;;;;;;;11.30;6.60;;;;;;;-128.00;-1.00;-1.00;104944;1264;1004432;-84
2023/02/03 09:24:00;;;;;;;9.10;7.10;;;;;;;-128.00;-1.00;-1.00;104937;1264;1004689;-85
2023/02/03 09:26:27;;;;;;;10.40;6.70;;;;;;;-128.00;-1.00;-1.00;104845;1264;1059374;-84
2023/02/03 09:28:54;;;;;;;11.40;7.00;;;;;;;-128.00;-1.00;-1.00;104922;1264;1004163;-83
2023/02/03 09:31:21;;;;;;;9.40;7.30;;;;;;;-128.00;-1.00;-1.00;104931;1264;1004003;-84
2023/02/03 09:33:47;;;;;;;13.50;8.40;;;;;;;-128.00;-1.00;-1.00;104980;1264;1003355;-84
2023/02/03 09:36:14;;;;;;;15.60;10.50;;;;;;;-128.00;-1.00;-1.00;104943;1263;1004418;-85
2023/02/03 09:38:41;;;;;;;9.00;6.20;;;;;;;-128.00;-1.00;-1.00;104812;1264;1004468;-83
2023/02/03 09:41:46;;;;;;;9.40;6.80;;;;;;;-128.00;-1.00;-1.00;104894;1264;1004434;-84
2023/02/03 09:44:25;;;;;;;9.40;6.70;;;;;;;-128.00;-1.00;-1.00;104461;1271;1047219;-85
2023/02/03 09:46:59;;;;;;;10.20;7.10;;;;;;;-128.00;-1.00;-1.00;104431;1271;1063020;-85
2023/02/03 09:49:41;;;;;;;10.60;6.80;;;;;;;-128.00;-1.00;-1.00;104435;1271;1057198;-84
2023/02/03 09:52:23;;;;;;;7.80;5.70;;;;;;;-128.00;-1.00;-1.00;104460;1271;1059456;-86
2023/02/03 09:55:12;;;;;;;11.20;6.50;;;;;;;-128.00;-1.00;-1.00;104220;1271;1044858;-85
2023/02/03 09:57:55;;;;;;;10.10;6.70;;;;;;;-128.00;-1.00;-1.00;104572;1271;1046600;-85
2023/02/03 10:00:29;;;;;;;8.60;5.80;;;;;;;-128.00;-1.00;-1.00;104170;1273;1062712;-83
2023/02/03 10:03:02;;;;;;;8.40;5.40;;;;;;;-128.00;-1.00;-1.00;104125;1274;1055955;-85
2023/02/03 10:06:11;;;;;;;8.20;6.00;;;;;;;-128.00;-1.00;-1.00;104148;1273;1059946;-85
2023/02/03 10:08:55;;;;;;;10.10;7.10;;;;;;;-128.00;-1.00;-1.00;103525;1279;1045757;-85
2023/02/03 10:11:24;;;;;;;5.70;5.20;;;;;;;-128.00;-1.00;-1.00;103361;1279;1046675;-84
2023/02/03 10:14:24;;;;;;;9.30;7.00;;;;;;;-128.00;-1.00;-1.00;103507;1279;1062535;-80
2023/02/03 10:16:59;;;;;;;13.10;6.50;;;;;;;-128.00;-1.00;-1.00;103508;1280;1055740;-82
2023/02/03 10:19:36;;;;;;;12.70;8.00;;;;;;;-128.00;-1.00;-1.00;104011;1274;1058804;-84
2023/02/03 10:22:05;;;;;;;13.50;7.50;;;;;;;-128.00;-1.00;-1.00;104089;1274;1045771;-84
2023/02/03 10:24:50;;;;;;;12.00;7.90;;;;;;;-128.00;-1.00;-1.00;104081;1274;1046591;-83
2023/02/03 10:27:20;;;;;;;12.30;7.60;;;;;;;-128.00;-1.00;-1.00;104097;1274;1062120;-83
2023/02/03 10:29:59;;;;;;;13.70;9.30;;;;;;;-128.00;-1.00;-1.00;104107;1274;1055579;-84
2023/02/03 10:32:26;;;;;;;12.10;7.90;;;;;;;-128.00;-1.00;-1.00;104249;1271;1060184;-83
2023/02/03 10:34:54;;;;;;;13.90;8.20;;;;;;;-128.00;-1.00;-1.00;104329;1272;1004180;-82
2023/02/03 10:37:30;;;;;;;11.10;7.30;;;;;;;-128.00;-1.00;-1.00;104290;1272;1003783;-84
2023/02/03 10:40:00;;;;;;;12.60;7.20;;;;;;;-128.00;-1.00;-1.00;104342;1271;1061806;-85
2023/02/03 10:45:19;;;;;;;9.80;6.80;;;;;;;-128.00;-1.00;-1.00;104158;1265;1060044;-83
2023/02/03 10:47:56;;;;;;;10.30;7.10;;;;;;;-128.00;-1.00;-1.00;104788;1266;1004855;-83
2023/02/03 10:50:30;;;;;;;9.70;6.50;;;;;;;-128.00;-1.00;-1.00;104830;1266;1047910;-83
2023/02/03 10:53:32;;;;;;;11.50;7.50;;;;;;;-128.00;-1.00;-1.00;104721;1267;1062656;-83
2023/02/03 10:56:04;;;;;;;10.30;7.50;;;;;;;-128.00;-1.00;-1.00;104782;1267;1054993;-84
2023/02/03 10:58:33;;;;;;;9.80;7.60;;;;;;;-128.00;-1.00;-1.00;104825;1266;1060025;-83
2023/02/03 11:01:12;;;;;;;10.10;7.30;;;;;;;-128.00;-1.00;-1.00;104845;1267;1004385;-83
2023/02/03 11:04:06;;;;;;;8.30;6.90;;;;;;;-128.00;-1.00;-1.00;104835;1266;1046800;-83
2023/02/03 11:06:33;;;;;;;10.00;7.80;;;;;;;-128.00;-1.00;-1.00;104200;1273;1062777;-83
2023/02/03 11:08:59;;;;;;;11.00;8.40;;;;;;;-128.00;-1.00;-1.00;104186;1272;1005061;-83
2023/02/03 11:11:33;;;;;;;11.80;9.40;;;;;;;-128.00;-1.00;-1.00;104194;1272;1005210;-84
2023/02/03 11:14:02;;;;;;;11.20;9.20;;;;;;;-128.00;-1.00;-1.00;104040;1273;1046325;-82
2023/02/03 11:16:33;;;;;;;11.80;8.10;;;;;;;-128.00;-1.00;-1.00;104233;1272;1045884;-84
2023/02/03 11:19:03;;;;;;;12.60;8.60;;;;;;;-128.00;-1.00;-1.00;104221;1273;1061838;-84
2023/02/03 11:21:36;;;;;;;14.20;11.40;;;;;;;-128.00;-1.00;-1.00;104076;1273;1054777;-84
2023/02/03 11:24:05;;;;;;;12.30;9.00;;;;;;;-128.00;-1.00;-1.00;104185;1273;1058876;-83
2023/02/03 11:26:39;;;;;;;13.50;9.10;;;;;;;-128.00;-1.00;-1.00;103970;1273;1046077;-74
2023/02/03 11:29:13;;;;;;;13.20;9.50;;;;;;;-128.00;-1.00;-1.00;104171;1273;1047407;-74
2023/02/03 11:31:47;;;;;;;13.70;9.60;;;;;;;-128.00;-1.00;-1.00;103932;1275;1061922;-74